X  Lukk Metar værinformasjon om luftfart     EDDS Stuttgart Airport
Temperatur
13°C Temperatur
10°C Duggpunkt
82% Luftfuktighet



Vind
8 KM/T
5 MPT
2 M/S
4 KNP



220°
SV
Nåværende forhold

Delvis overskyet Delvis overskyet
Trykk 1023.92 (hPa) - 30.24 (inHg)
Sikt 6.2 (mil) - 10 (km)
Flyplass
Flyplass-kode EDDS

Plassering: Stuttgart Airport
Avstand: 10 (km)

Metar:
EDDS 300950Z 22004KT 170V270 9999 FEW010 BKN036 13/10 Q1024 NOSIG

Tid: 30-10-2020 10:50 CET